Time;durP1;ratioP1;P1;durP2;ratioP2;P2;SDS_P1;SDS_P2;PMS_P1;PMS_P2;Temp;Humidity;BMP_temperature;BMP_pressure;BME280_temperature;BME280_humidity;BME280_pressure;Samples;Min_cycle;Max_cycle;Signal;HPM_P1;HPM_P2
2023/04/01 00:01:56;;;;;;;0.98;0.50;;;17.10;69.90;;;;;;5006967;28;20388;-78
2023/04/01 00:04:21;;;;;;;0.85;0.40;;;17.00;69.90;;;;;;5007141;28;20044;-78
2023/04/01 00:06:47;;;;;;;0.40;0.40;;;17.00;69.80;;;;;;5005152;28;20041;-78
2023/04/01 00:09:13;;;;;;;0.52;0.30;;;17.10;69.90;;;;;;5003623;28;20041;-78
2023/04/01 00:11:39;;;;;;;0.43;0.30;;;17.00;69.80;;;;;;5007137;28;20045;-78
2023/04/01 00:14:05;;;;;;;0.20;0.20;;;17.10;70.00;;;;;;5003363;28;20041;-78
2023/04/01 00:16:31;;;;;;;0.60;0.50;;;17.10;69.80;;;;;;5005694;28;20050;-78
2023/04/01 00:18:56;;;;;;;0.30;0.30;;;17.10;69.80;;;;;;5003292;28;20049;-78
2023/04/01 00:21:22;;;;;;;0.22;0.20;;;17.00;69.80;;;;;;5007861;28;20038;-78
2023/04/01 00:23:49;;;;;;;0.82;0.35;;;17.00;69.90;;;;;;5004820;28;20108;-79
2023/04/01 00:26:18;;;;;;;0.60;0.60;;;17.00;69.90;;;;;;5009089;28;20038;-78
2023/04/01 00:28:44;;;;;;;0.38;0.30;;;17.00;69.80;;;;;;5006146;28;20042;-78
2023/04/01 00:31:10;;;;;;;0.60;0.32;;;17.00;70.70;;;;;;5004650;28;20056;-78
2023/04/01 00:33:36;;;;;;;0.40;0.30;;;17.00;69.90;;;;;;5007207;28;20049;-78
2023/04/01 00:36:19;;;;;;;0.73;0.45;;;17.00;70.00;;;;;;4990923;28;20105;-78
2023/04/01 00:38:45;;;;;;;0.52;0.32;;;17.00;69.80;;;;;;5004428;28;20092;-78
2023/04/01 00:41:15;;;;;;;0.32;0.32;;;17.00;69.90;;;;;;5005648;28;20065;-78
2023/04/01 00:43:41;;;;;;;0.40;0.40;;;17.00;69.90;;;;;;5006089;28;20056;-78
2023/04/01 00:46:07;;;;;;;0.95;0.60;;;17.00;69.80;;;;;;5024019;28;20416;-78
2023/04/01 00:48:41;;;;;;;0.55;0.30;;;17.00;69.90;;;;;;5009809;28;20053;-78
2023/04/01 00:51:14;;;;;;;0.30;0.30;;;17.00;69.80;;;;;;4986325;28;20124;-78
2023/04/01 00:53:44;;;;;;;0.28;0.20;;;17.00;69.80;;;;;;5008998;28;20830;-78
2023/04/01 00:56:39;;;;;;;0.47;0.30;;;17.00;69.80;;;;;;5008716;28;20508;-78
2023/04/01 00:59:08;;;;;;;0.77;0.40;;;17.00;69.80;;;;;;5006581;28;20096;-78
2023/04/01 01:01:34;;;;;;;0.55;0.45;;;17.00;69.80;;;;;;5010940;28;20042;-78
2023/04/01 01:04:02;;;;;;;0.32;0.28;;;17.00;69.80;;;;;;5024008;28;20068;-78
2023/04/01 01:06:47;;;;;;;0.55;0.40;;;17.00;69.80;;;;;;5012328;28;20079;-78
2023/04/01 01:09:24;;;;;;;1.08;0.30;;;17.00;69.80;;;;;;5007408;28;20161;-78
2023/04/01 01:11:50;;;;;;;0.45;0.30;;;17.00;69.80;;;;;;5008836;28;20112;-78
2023/04/01 01:14:37;;;;;;;0.45;0.30;;;17.00;69.70;;;;;;5007106;28;20046;-78
2023/04/01 01:17:17;;;;;;;0.35;0.35;;;17.00;69.80;;;;;;5008879;28;20403;-78
2023/04/01 01:20:20;;;;;;;0.65;0.40;;;17.00;69.70;;;;;;5025749;28;20060;-78
2023/04/01 01:22:57;;;;;;;0.40;0.30;;;16.90;69.70;;;;;;5003163;28;20073;-78
2023/04/01 01:25:38;;;;;;;0.60;0.30;;;17.00;69.80;;;;;;4992771;28;20645;-78
2023/04/01 01:28:27;;;;;;;0.47;0.43;;;16.90;69.80;;;;;;5004051;28;20050;-78
2023/04/01 01:30:55;;;;;;;0.40;0.40;;;16.90;69.80;;;;;;5002380;28;20042;-78
2023/04/01 01:33:25;;;;;;;0.45;0.22;;;16.90;69.80;;;;;;5008749;28;20030;-78
2023/04/01 01:35:54;;;;;;;0.30;0.25;;;16.90;69.70;;;;;;5009687;28;20057;-78
2023/04/01 01:38:24;;;;;;;0.60;0.30;;;16.90;69.70;;;;;;5006524;28;20245;-78
2023/04/01 01:40:53;;;;;;;0.73;0.40;;;16.90;69.70;;;;;;5010443;28;20359;-78
2023/04/01 01:43:24;;;;;;;0.82;0.40;;;16.90;69.80;;;;;;5006248;28;20046;-78
2023/04/01 01:45:52;;;;;;;0.63;0.35;;;16.90;69.70;;;;;;5022075;28;20041;-78
2023/04/01 01:48:18;;;;;;;0.35;0.20;;;16.90;69.70;;;;;;4996701;28;20048;-78
2023/04/01 01:50:44;;;;;;;0.57;0.50;;;16.90;69.60;;;;;;5008721;28;20038;-78
2023/04/01 01:53:11;;;;;;;0.47;0.40;;;16.90;69.70;;;;;;5005390;28;20068;-78
2023/04/01 01:55:38;;;;;;;0.52;0.47;;;16.90;69.60;;;;;;5008401;28;20448;-78
2023/04/01 01:58:25;;;;;;;0.63;0.50;;;16.90;69.60;;;;;;5007037;28;20723;-77
2023/04/01 02:01:02;;;;;;;1.05;0.40;;;16.90;69.60;;;;;;5006372;28;20033;-78
2023/04/01 02:03:30;;;;;;;0.47;0.30;;;16.90;69.70;;;;;;5008556;28;20050;-78
2023/04/01 02:05:57;;;;;;;0.30;0.30;;;16.90;69.60;;;;;;5004295;28;20097;-78
2023/04/01 02:08:26;;;;;;;0.70;0.30;;;16.90;69.70;;;;;;5006859;28;20048;-78
2023/04/01 02:11:00;;;;;;;0.40;0.40;;;16.90;69.70;;;;;;5009400;28;20338;-78
2023/04/01 02:13:50;;;;;;;0.60;0.40;;;16.90;69.60;;;;;;4987277;28;20056;-78
2023/04/01 02:16:46;;;;;;;0.60;0.40;;;16.90;69.70;;;;;;5001394;28;20045;-78
2023/04/01 02:19:12;;;;;;;0.47;0.30;;;16.90;69.70;;;;;;5018223;28;20045;-78
2023/04/01 02:21:37;;;;;;;0.35;0.32;;;16.90;69.70;;;;;;4993198;28;20419;-78
2023/04/01 02:24:05;;;;;;;0.40;0.40;;;16.90;69.60;;;;;;5008484;28;20103;-78
2023/04/01 02:26:31;;;;;;;0.40;0.30;;;16.80;69.60;;;;;;5008967;28;20050;-78
2023/04/01 02:28:57;;;;;;;0.30;0.20;;;16.90;69.80;;;;;;5007960;28;20084;-78
2023/04/01 02:31:22;;;;;;;0.40;0.38;;;16.90;69.60;;;;;;5009677;28;20503;-78
2023/04/01 02:33:48;;;;;;;0.60;0.40;;;16.90;69.60;;;;;;5005193;28;20586;-78
2023/04/01 02:36:14;;;;;;;0.30;0.30;;;16.90;69.80;;;;;;5021695;28;20073;-78
2023/04/01 02:38:40;;;;;;;0.50;0.47;;;16.90;69.60;;;;;;5017999;28;20045;-78
2023/04/01 02:41:06;;;;;;;0.30;0.25;;;16.90;69.60;;;;;;5006643;28;20041;-78
2023/04/01 02:43:32;;;;;;;0.50;0.38;;;16.90;69.60;;;;;;5006739;28;20470;-78
2023/04/01 02:45:57;;;;;;;0.43;0.35;;;16.80;69.60;;;;;;5007121;28;22020;-78
2023/04/01 02:48:23;;;;;;;0.38;0.20;;;16.90;69.60;;;;;;5006868;28;20515;-78
2023/04/01 02:50:49;;;;;;;0.77;0.40;;;16.90;69.60;;;;;;5010832;28;20056;-78
2023/04/01 02:53:15;;;;;;;1.75;0.45;;;16.80;69.60;;;;;;5007582;28;20049;-78
2023/04/01 02:55:40;;;;;;;0.30;0.30;;;16.80;69.70;;;;;;5009277;28;20053;-78
2023/04/01 02:58:06;;;;;;;0.70;0.30;;;16.80;69.60;;;;;;5006488;28;20053;-78
2023/04/01 03:00:32;;;;;;;0.50;0.45;;;16.90;69.70;;;;;;5008796;28;20041;-78
2023/04/01 03:02:57;;;;;;;0.55;0.40;;;16.80;69.70;;;;;;5007751;28;20038;-78
2023/04/01 03:05:23;;;;;;;0.40;0.30;;;16.90;69.70;;;;;;5008571;28;20509;-78
2023/04/01 03:07:49;;;;;;;0.70;0.35;;;16.80;69.60;;;;;;5007015;28;20046;-78
2023/04/01 03:10:14;;;;;;;0.98;0.47;;;16.80;69.60;;;;;;5004357;28;20045;-78
2023/04/01 03:12:40;;;;;;;0.75;0.35;;;16.80;69.60;;;;;;5006385;28;20045;-78
2023/04/01 03:15:06;;;;;;;0.98;0.43;;;16.80;69.70;;;;;;5008634;28;20408;-78
2023/04/01 03:17:31;;;;;;;0.50;0.30;;;16.80;69.60;;;;;;5005148;28;20073;-78
2023/04/01 03:19:57;;;;;;;0.40;0.40;;;16.80;69.70;;;;;;5008365;28;20041;-78
2023/04/01 03:22:22;;;;;;;0.30;0.30;;;16.80;69.60;;;;;;5006214;28;20029;-78
2023/04/01 03:24:49;;;;;;;0.52;0.52;;;16.80;69.60;;;;;;5008324;28;20569;-78
2023/04/01 03:27:15;;;;;;;0.35;0.28;;;16.80;69.70;;;;;;5002503;28;20731;-78
2023/04/01 03:29:40;;;;;;;0.38;0.38;;;16.80;69.70;;;;;;5003648;28;20050;-78
2023/04/01 03:32:06;;;;;;;0.30;0.30;;;16.80;69.70;;;;;;5008086;28;20044;-78
2023/04/01 03:34:32;;;;;;;0.50;0.30;;;16.80;69.70;;;;;;5007640;28;20037;-78
2023/04/01 03:36:57;;;;;;;0.57;0.32;;;16.80;69.70;;;;;;5007253;28;20034;-78
2023/04/01 03:39:23;;;;;;;0.32;0.20;;;16.80;69.70;;;;;;5005487;28;20053;-78
2023/04/01 03:41:49;;;;;;;0.60;0.32;;;16.80;69.70;;;;;;5003228;28;20471;-78
2023/04/01 03:44:14;;;;;;;0.85;0.20;;;16.80;69.70;;;;;;5007621;28;20104;-78
2023/04/01 03:46:40;;;;;;;0.47;0.40;;;16.80;69.70;;;;;;5006093;28;20068;-78
2023/04/01 03:49:11;;;;;;;0.77;0.38;;;16.80;69.70;;;;;;5004021;28;20049;-78
2023/04/01 03:51:38;;;;;;;0.45;0.28;;;16.80;69.70;;;;;;4991877;28;20048;-78
2023/04/01 03:54:04;;;;;;;0.43;0.20;;;16.80;69.60;;;;;;5006405;28;20042;-78
2023/04/01 03:56:30;;;;;;;0.38;0.28;;;16.80;69.70;;;;;;5007695;28;20046;-78
2023/04/01 03:58:55;;;;;;;0.40;0.30;;;16.80;70.50;;;;;;5005023;28;20105;-78
2023/04/01 04:01:21;;;;;;;0.80;0.50;;;16.70;69.60;;;;;;5005482;28;20041;-78
2023/04/01 04:03:48;;;;;;;0.50;0.40;;;16.80;69.70;;;;;;5006339;28;20046;-78
2023/04/01 04:06:14;;;;;;;0.50;0.32;;;16.80;69.70;;;;;;5007341;28;20041;-78
2023/04/01 04:08:40;;;;;;;0.55;0.30;;;16.70;69.50;;;;;;5005168;28;20088;-78
2023/04/01 04:11:05;;;;;;;0.40;0.30;;;16.70;69.60;;;;;;5003883;28;20092;-77
2023/04/01 04:13:31;;;;;;;1.33;0.20;;;16.70;69.60;;;;;;5005558;28;20033;-78
2023/04/01 04:15:57;;;;;;;0.35;0.35;;;16.80;69.60;;;;;;5004801;28;20049;-78
2023/04/01 04:18:22;;;;;;;0.45;0.35;;;16.80;69.60;;;;;;5004880;28;20103;-78
2023/04/01 04:20:50;;;;;;;0.30;0.20;;;16.70;69.60;;;;;;5006526;28;20058;-78
2023/04/01 04:23:16;;;;;;;0.32;0.20;;;16.70;69.60;;;;;;5005947;28;20042;-78
2023/04/01 04:25:52;;;;;;;0.60;0.40;;;16.80;69.60;;;;;;5007736;28;20510;-78
2023/04/01 04:28:18;;;;;;;0.25;0.20;;;16.70;69.60;;;;;;5004946;28;20060;-78
2023/04/01 04:30:44;;;;;;;0.45;0.30;;;16.70;69.60;;;;;;5007059;28;20038;-78
2023/04/01 04:33:09;;;;;;;1.02;0.30;;;16.70;69.60;;;;;;4989500;28;20045;-78
2023/04/01 04:35:35;;;;;;;0.52;0.45;;;16.70;69.60;;;;;;5016996;28;20038;-78
2023/04/01 04:38:00;;;;;;;0.95;0.43;;;16.70;69.60;;;;;;5004567;28;20411;-78
2023/04/01 04:40:26;;;;;;;0.35;0.30;;;16.70;69.70;;;;;;5004955;28;20046;-78
2023/04/01 04:42:52;;;;;;;0.47;0.40;;;16.70;69.60;;;;;;4987375;28;20039;-78
2023/04/01 04:45:17;;;;;;;0.35;0.30;;;16.70;69.60;;;;;;5003020;28;20500;-78
2023/04/01 04:47:43;;;;;;;0.30;0.28;;;16.70;69.70;;;;;;5003165;28;20042;-78
2023/04/01 04:50:08;;;;;;;0.45;0.30;;;16.70;69.60;;;;;;5007774;28;20042;-78
2023/04/01 04:52:34;;;;;;;0.20;0.13;;;16.70;69.60;;;;;;5008314;28;20558;-78
2023/04/01 04:55:00;;;;;;;0.30;0.30;;;16.70;69.60;;;;;;5003624;28;20046;-78
2023/04/01 04:57:25;;;;;;;0.68;0.30;;;16.70;69.60;;;;;;5006099;28;20133;-78
2023/04/01 04:59:51;;;;;;;0.40;0.30;;;16.70;69.50;;;;;;5007040;28;20387;-78
2023/04/01 05:02:17;;;;;;;0.30;0.30;;;16.70;69.60;;;;;;5007293;28;20149;-78
2023/04/01 05:04:42;;;;;;;0.60;0.20;;;16.70;69.60;;;;;;5006586;28;20045;-78
2023/04/01 05:07:08;;;;;;;0.65;0.40;;;16.70;69.60;;;;;;5002287;28;20034;-78
2023/04/01 05:09:33;;;;;;;0.52;0.40;;;16.70;69.60;;;;;;5004675;28;20054;-78
2023/04/01 05:11:59;;;;;;;0.30;0.22;;;16.70;69.50;;;;;;5004824;28;20030;-78
2023/04/01 05:14:25;;;;;;;0.20;0.17;;;16.70;69.60;;;;;;5007417;28;20048;-78
2023/04/01 05:16:50;;;;;;;0.43;0.30;;;16.70;69.50;;;;;;5004956;28;20043;-78
2023/04/01 05:19:16;;;;;;;0.38;0.20;;;16.70;69.50;;;;;;5004567;28;20522;-78
2023/04/01 05:21:41;;;;;;;0.63;0.38;;;16.70;69.50;;;;;;5005775;28;20125;-78
2023/04/01 05:24:09;;;;;;;0.30;0.20;;;16.70;69.50;;;;;;5014838;28;20057;-78
2023/04/01 05:26:35;;;;;;;0.30;0.20;;;16.70;69.50;;;;;;5003373;28;20037;-78
2023/04/01 05:29:00;;;;;;;0.32;0.25;;;16.70;69.60;;;;;;5005174;28;20038;-78
2023/04/01 05:31:26;;;;;;;0.30;0.30;;;16.70;69.50;;;;;;5009124;28;20048;-78
2023/04/01 05:33:51;;;;;;;0.50;0.40;;;16.70;69.50;;;;;;5008892;28;20499;-78
2023/04/01 05:36:17;;;;;;;0.20;0.20;;;16.70;69.60;;;;;;5007782;28;20045;-78
2023/04/01 05:38:43;;;;;;;0.40;0.30;;;16.70;69.50;;;;;;5007138;28;20407;-77
2023/04/01 05:41:09;;;;;;;0.30;0.15;;;16.70;69.50;;;;;;5007250;28;20415;-77
2023/04/01 05:43:38;;;;;;;0.30;0.20;;;16.70;69.50;;;;;;5011639;28;20047;-77
2023/04/01 05:46:04;;;;;;;0.70;0.40;;;16.70;69.50;;;;;;5007991;28;20534;-77
2023/04/01 05:48:29;;;;;;;0.70;0.40;;;16.60;69.50;;;;;;5004128;28;20046;-77
2023/04/01 05:50:55;;;;;;;0.65;0.30;;;16.70;69.50;;;;;;5009927;28;20041;-77
2023/04/01 05:53:22;;;;;;;0.28;0.20;;;16.70;69.50;;;;;;5008073;28;20048;-77
2023/04/01 05:55:47;;;;;;;0.80;0.50;;;16.60;69.40;;;;;;5009625;28;20133;-77
2023/04/01 05:58:13;;;;;;;0.80;0.30;;;16.60;69.50;;;;;;5004986;28;20132;-77
2023/04/01 06:00:38;;;;;;;0.40;0.20;;;16.60;69.40;;;;;;5008574;28;20037;-77
2023/04/01 06:03:04;;;;;;;0.20;0.20;;;16.70;69.50;;;;;;5008175;28;20042;-77
2023/04/01 06:05:35;;;;;;;0.50;0.30;;;16.60;69.30;;;;;;4992449;28;20033;-77
2023/04/01 06:08:11;;;;;;;0.20;0.20;;;16.70;69.40;;;;;;5007778;28;20045;-77
2023/04/01 06:11:03;;;;;;;0.38;0.30;;;16.70;69.40;;;;;;4990433;28;20045;-77
2023/04/01 06:13:44;;;;;;;0.43;0.20;;;16.70;69.40;;;;;;5005818;28;20073;-77
2023/04/01 06:16:28;;;;;;;0.70;0.35;;;16.70;69.40;;;;;;5006254;28;20030;-77
2023/04/01 06:19:17;;;;;;;0.30;0.28;;;16.70;69.30;;;;;;5006862;28;20073;-77
2023/04/01 06:21:46;;;;;;;1.23;0.32;;;16.60;69.20;;;;;;5005267;28;20495;-77
2023/04/01 06:24:34;;;;;;;0.40;0.13;;;16.60;69.30;;;;;;5008345;28;20076;-77
2023/04/01 06:27:26;;;;;;;0.30;0.25;;;16.60;69.40;;;;;;5007454;28;20034;-77
2023/04/01 06:30:19;;;;;;;0.63;0.30;;;16.70;69.40;;;;;;5006226;28;20416;-77
2023/04/01 06:32:57;;;;;;;0.40;0.30;;;16.60;69.30;;;;;;5008153;28;20046;-77
2023/04/01 06:35:58;;;;;;;0.30;0.25;;;16.70;69.40;;;;;;5008734;28;20526;-77
2023/04/01 06:38:41;;;;;;;0.50;0.28;;;16.70;69.30;;;;;;5002852;28;20041;-77
2023/04/01 06:41:48;;;;;;;0.55;0.20;;;16.60;69.30;;;;;;5004987;28;20035;-77
2023/04/01 06:44:19;;;;;;;0.43;0.40;;;16.60;69.30;;;;;;5006976;28;20037;-77
2023/04/01 06:47:10;;;;;;;0.30;0.20;;;16.70;69.30;;;;;;5006956;28;20088;-77
2023/04/01 06:49:59;;;;;;;0.77;0.30;;;16.60;69.20;;;;;;5003676;28;20042;-77
2023/04/01 06:52:47;;;;;;;0.50;0.30;;;16.60;69.20;;;;;;4964303;28;20094;-77
2023/04/01 06:55:25;;;;;;;0.68;0.28;;;16.60;69.20;;;;;;4948797;28;20046;-77
2023/04/01 06:57:52;;;;;;;0.47;0.47;;;16.70;69.20;;;;;;4950260;28;20558;-77
2023/04/01 07:00:31;;;;;;;0.60;0.20;;;16.60;69.20;;;;;;4947484;28;20207;-77
2023/04/01 07:03:16;;;;;;;0.60;0.32;;;16.70;69.20;;;;;;4965729;28;20050;-77
2023/04/01 07:05:41;;;;;;;0.43;0.35;;;16.60;69.10;;;;;;4964384;28;20050;-77
2023/04/01 07:08:10;;;;;;;0.85;0.32;;;16.70;69.10;;;;;;4928086;28;20035;-77
2023/04/01 07:10:36;;;;;;;0.22;0.10;;;16.70;69.10;;;;;;4965093;28;20051;-77
2023/04/01 07:13:05;;;;;;;0.32;0.32;;;16.70;69.20;;;;;;4965881;28;20043;-77
2023/04/01 07:15:36;;;;;;;0.30;0.28;;;16.70;69.00;;;;;;4963841;28;20137;-77
2023/04/01 07:18:05;;;;;;;0.52;0.40;;;16.70;69.00;;;;;;4949122;28;20038;-77
2023/04/01 07:20:32;;;;;;;0.63;0.20;;;16.70;69.00;;;;;;4945899;28;20054;-77
2023/04/01 07:22:59;;;;;;;0.32;0.30;;;16.60;68.90;;;;;;4962631;28;20130;-77
2023/04/01 07:25:29;;;;;;;0.43;0.25;;;16.70;69.00;;;;;;4931197;28;20050;-77
2023/04/01 07:28:06;;;;;;;0.38;0.20;;;16.70;69.00;;;;;;4928496;29;20039;-77
2023/04/01 07:30:54;;;;;;;0.80;0.32;;;16.70;69.00;;;;;;4996579;28;20532;-77
2023/04/01 07:33:30;;;;;;;0.50;0.30;;;16.70;69.00;;;;;;5007350;28;20077;-77
2023/04/01 07:36:02;;;;;;;0.30;0.20;;;16.70;69.00;;;;;;5005779;28;20053;-77
2023/04/01 07:38:46;;;;;;;0.32;0.20;;;16.70;69.00;;;;;;5004675;28;20041;-77
2023/04/01 07:41:30;;;;;;;0.30;0.20;;;16.70;69.00;;;;;;5005552;28;20045;-77
2023/04/01 07:44:26;;;;;;;0.45;0.30;;;16.70;68.90;;;;;;5007635;28;20598;-77
2023/04/01 07:47:22;;;;;;;0.40;0.40;;;16.70;69.00;;;;;;5004749;28;20073;-77
2023/04/01 07:50:27;;;;;;;0.40;0.30;;;16.70;69.00;;;;;;5007484;28;20095;-77
2023/04/01 07:53:12;;;;;;;0.40;0.40;;;16.70;68.90;;;;;;5005516;28;20467;-77
2023/04/01 07:55:43;;;;;;;0.40;0.30;;;16.70;69.00;;;;;;5020728;28;20527;-77
2023/04/01 07:58:30;;;;;;;0.30;0.30;;;16.70;69.00;;;;;;5004896;28;20392;-77
2023/04/01 08:01:01;;;;;;;0.35;0.30;;;16.70;69.00;;;;;;5003925;28;20050;-77
2023/04/01 08:03:33;;;;;;;0.35;0.22;;;16.70;69.00;;;;;;5022537;28;20120;-77
2023/04/01 08:06:07;;;;;;;0.30;0.30;;;16.70;68.90;;;;;;5007941;28;20578;-77
2023/04/01 08:08:32;;;;;;;;;;;16.80;68.90;;;;;;5004427;28;20046;-77
2023/04/01 08:11:10;;;;;;;0.40;0.20;;;16.80;68.90;;;;;;5006081;28;19922;-77
2023/04/01 08:14:12;;;;;;;0.38;0.20;;;16.80;68.80;;;;;;5006781;28;20144;-77
2023/04/01 08:17:00;;;;;;;0.32;0.20;;;16.80;68.70;;;;;;5003081;28;20034;-77
2023/04/01 08:19:51;;;;;;;0.82;0.35;;;16.80;68.80;;;;;;5005209;28;20061;-77
2023/04/01 08:22:32;;;;;;;0.40;0.30;;;16.80;68.80;;;;;;5005566;28;20037;-77
2023/04/01 08:25:02;;;;;;;0.35;0.32;;;16.80;68.80;;;;;;5004217;28;20065;-77
2023/04/01 08:27:30;;;;;;;0.38;0.20;;;16.80;68.80;;;;;;5006371;28;20117;-77
2023/04/01 08:29:59;;;;;;;0.30;0.30;;;16.80;68.70;;;;;;5007959;28;20108;-77
2023/04/01 08:32:28;;;;;;;0.57;0.30;;;16.80;68.70;;;;;;5003555;28;20053;-77
2023/04/01 08:35:18;;;;;;;0.63;0.20;;;16.80;68.70;;;;;;5007135;28;20490;-77
2023/04/01 08:37:44;;;;;;;0.77;0.30;;;16.80;68.70;;;;;;5004171;28;20049;-77
2023/04/01 08:40:50;;;;;;;0.85;0.55;;;16.80;68.70;;;;;;5003430;28;20117;-77
2023/04/01 08:43:35;;;;;;;0.43;0.20;;;16.80;68.60;;;;;;5019061;28;20500;-77
2023/04/01 08:46:42;;;;;;;0.30;0.20;;;16.80;68.60;;;;;;5004924;28;20042;-77
2023/04/01 08:49:26;;;;;;;0.38;0.30;;;16.80;68.60;;;;;;5003176;28;20133;-77
2023/04/01 08:52:29;;;;;;;0.73;0.40;;;16.90;68.50;;;;;;5004125;28;20042;-77
2023/04/01 08:55:13;;;;;;;0.57;0.43;;;16.90;68.40;;;;;;5005000;28;20288;-77
2023/04/01 08:58:02;;;;;;;0.50;0.30;;;16.90;68.50;;;;;;5004641;28;20049;-77
2023/04/01 09:00:48;;;;;;;1.08;0.30;;;17.00;68.20;;;;;;5003383;28;20518;-77
2023/04/01 09:03:29;;;;;;;0.40;0.20;;;16.90;68.40;;;;;;5005168;28;20096;-77
2023/04/01 09:06:51;;;;;;;0.55;0.20;;;16.90;68.40;;;;;;5006729;28;20402;-77
2023/04/01 09:09:37;;;;;;;0.88;0.35;;;16.90;68.40;;;;;;5006448;28;20097;-77
2023/04/01 09:12:17;;;;;;;0.40;0.28;;;17.00;68.40;;;;;;5001996;28;20034;-77
2023/04/01 09:15:12;;;;;;;0.50;0.20;;;16.90;68.20;;;;;;5007573;28;20127;-77
2023/04/01 09:17:41;;;;;;;0.50;0.30;;;17.00;68.40;;;;;;4978095;28;20049;-77
2023/04/01 09:20:29;;;;;;;0.20;0.20;;;17.00;68.30;;;;;;4991725;28;20097;-77
2023/04/01 09:23:32;;;;;;;0.57;0.52;;;17.00;68.20;;;;;;5005800;28;20634;-77
2023/04/01 09:26:09;;;;;;;0.77;0.40;;;17.00;68.20;;;;;;5008151;28;20045;-77
2023/04/01 09:29:10;;;;;;;0.38;0.15;;;17.00;68.20;;;;;;5004694;28;20070;-77
2023/04/01 09:31:51;;;;;;;0.77;0.40;;;17.00;68.30;;;;;;4988219;28;20112;-77
2023/04/01 09:34:24;;;;;;;0.50;0.25;;;17.00;68.30;;;;;;4987681;28;20105;-77
2023/04/01 09:37:07;;;;;;;0.22;0.15;;;17.00;68.30;;;;;;4988118;28;20073;-77
2023/04/01 09:39:37;;;;;;;0.20;0.20;;;17.10;68.20;;;;;;4972177;28;20047;-77
2023/04/01 09:42:21;;;;;;;0.55;0.28;;;17.10;68.20;;;;;;4950678;28;20051;-77
2023/04/01 09:44:59;;;;;;;0.73;0.25;;;17.10;67.90;;;;;;4950289;28;20625;-77
2023/04/01 09:47:46;;;;;;;0.30;0.30;;;17.10;67.90;;;;;;4947186;28;20498;-77
2023/04/01 09:50:14;;;;;;;0.20;0.20;;;17.10;68.00;;;;;;4948595;28;20043;-77
2023/04/01 09:52:52;;;;;;;0.50;0.22;;;17.10;68.10;;;;;;4948714;28;20036;-77
2023/04/01 09:55:40;;;;;;;0.20;0.20;;;17.10;68.20;;;;;;4949360;28;20050;-77
2023/04/01 09:58:25;;;;;;;0.38;0.30;;;17.10;68.20;;;;;;4930937;28;20069;-77
2023/04/01 10:00:53;;;;;;;0.47;0.32;;;17.10;68.40;;;;;;4947347;28;20175;-77
2023/04/01 10:03:55;;;;;;;1.00;0.35;;;17.10;68.10;;;;;;4948815;28;20042;-77
2023/04/01 10:06:40;;;;;;;0.55;0.30;;;17.10;68.10;;;;;;4998408;28;20049;-77
2023/04/01 10:09:09;;;;;;;;;;;17.10;68.00;;;;;;5010252;28;20095;-77
2023/04/01 10:11:53;;;;;;;0.20;0.20;;;17.10;68.10;;;;;;5007819;28;20419;-77
2023/04/01 10:14:41;;;;;;;0.68;0.45;;;17.10;68.00;;;;;;5008962;28;20120;-77
2023/04/01 10:17:20;;;;;;;0.30;0.30;;;17.10;68.10;;;;;;5005064;28;20646;-77
2023/04/01 10:20:10;;;;;;;0.40;0.20;;;17.10;68.00;;;;;;5007758;28;20041;-77
2023/04/01 10:23:16;;;;;;;0.20;0.20;;;17.20;68.00;;;;;;5008942;28;20099;-77
2023/04/01 10:26:13;;;;;;;0.82;0.32;;;17.20;67.80;;;;;;5002762;28;20137;-77
2023/04/01 10:29:00;;;;;;;0.38;0.30;;;17.20;67.80;;;;;;5007524;28;20054;-77
2023/04/01 10:31:38;;;;;;;0.43;0.20;;;17.20;67.60;;;;;;5006054;28;20042;-77
2023/04/01 10:34:36;;;;;;;0.30;0.20;;;17.20;67.50;;;;;;5006700;28;20149;-77
2023/04/01 10:37:41;;;;;;;0.30;0.20;;;17.20;67.50;;;;;;5005573;28;20044;-77
2023/04/01 10:40:22;;;;;;;0.35;0.20;;;17.20;67.50;;;;;;5005785;28;20041;-77
2023/04/01 10:43:00;;;;;;;0.57;0.20;;;17.30;67.60;;;;;;5006043;28;20042;-77
2023/04/01 10:45:40;;;;;;;0.20;0.20;;;17.30;67.70;;;;;;5010419;28;20057;-77
2023/04/01 10:48:09;;;;;;;0.40;0.20;;;17.30;67.80;;;;;;5006200;28;20049;-77
2023/04/01 10:51:09;;;;;;;0.45;0.20;;;17.20;67.80;;;;;;5003181;28;20072;-77
2023/04/01 10:54:12;;;;;;;0.35;0.20;;;17.20;67.90;;;;;;5009032;28;20396;-77
2023/04/01 10:56:38;;;;;;;0.40;0.30;;;17.20;68.00;;;;;;5023349;28;20533;-77
2023/04/01 10:59:35;;;;;;;0.55;0.20;;;17.20;68.00;;;;;;5007511;28;20042;-77
2023/04/01 11:02:23;;;;;;;1.52;0.30;;;17.30;67.60;;;;;;5006843;28;20034;-77
2023/04/01 11:05:16;;;;;;;0.35;0.13;;;17.30;67.50;;;;;;5007725;28;20042;-77
2023/04/01 11:08:08;;;;;;;0.20;0.20;;;17.30;67.40;;;;;;5007557;28;20046;-77
2023/04/01 11:11:29;;;;;;;0.10;0.10;;;17.30;67.40;;;;;;5002888;28;20045;-77
2023/04/01 11:13:58;;;;;;;0.30;0.10;;;17.40;67.40;;;;;;4997102;28;20673;-77
2023/04/01 11:16:48;;;;;;;0.25;0.17;;;17.40;67.40;;;;;;5005064;28;20067;-77
2023/04/01 11:19:35;;;;;;;0.40;0.20;;;17.40;67.30;;;;;;4990019;28;20054;-77
2023/04/01 11:22:38;;;;;;;0.30;0.13;;;17.30;67.30;;;;;;4989183;28;20038;-77
2023/04/01 11:25:08;;;;;;;0.35;0.35;;;17.30;67.40;;;;;;5003509;28;20053;-77
2023/04/01 11:27:50;;;;;;;0.30;0.30;;;17.30;67.50;;;;;;4989378;28;20455;-77
2023/04/01 11:30:19;;;;;;;0.17;0.10;;;17.30;67.50;;;;;;4987441;28;20042;-77
2023/04/01 11:33:03;;;;;;;0.32;0.15;;;17.30;67.40;;;;;;5005288;28;20076;-77
2023/04/01 11:35:34;;;;;;;0.30;0.30;;;17.30;67.50;;;;;;4984302;28;20034;-77
2023/04/01 11:38:37;;;;;;;0.45;0.20;;;17.30;67.60;;;;;;5006988;28;20099;-77
2023/04/01 11:41:09;;;;;;;0.30;0.20;;;17.30;67.60;;;;;;5003951;28;20121;-77
2023/04/01 11:43:51;;;;;;;0.10;0.10;;;17.30;67.70;;;;;;5000060;28;20148;-78
2023/04/01 11:46:33;;;;;;;0.20;0.20;;;17.30;67.70;;;;;;4997260;28;20133;-78
2023/04/01 11:49:33;;;;;;;0.20;0.10;;;17.30;67.60;;;;;;4991174;28;20053;-78
2023/04/01 11:52:10;;;;;;;0.10;0.10;;;17.30;67.60;;;;;;5005619;28;20061;-77
2023/04/01 11:54:43;;;;;;;0.20;0.13;;;17.30;67.50;;;;;;5004685;28;20054;-78
2023/04/01 11:57:33;;;;;;;0.32;0.30;;;17.40;67.50;;;;;;5006950;28;20085;-78
2023/04/01 12:00:20;;;;;;;0.22;0.10;;;17.30;67.40;;;;;;5002188;28;20050;-78
2023/04/01 12:03:01;;;;;;;0.20;0.20;;;17.40;67.40;;;;;;5005621;28;20042;-77
2023/04/01 12:05:27;;;;;;;0.15;0.10;;;17.40;67.40;;;;;;5005315;28;20049;-78
2023/04/01 12:08:08;;;;;;;0.10;0.10;;;17.40;67.30;;;;;;5006983;28;20490;-78
2023/04/01 12:10:48;;;;;;;0.82;0.30;;;17.40;67.30;;;;;;5004231;28;20049;-78
2023/04/01 12:13:32;;;;;;;0.20;0.20;;;17.40;67.20;;;;;;4985988;28;20038;-78
2023/04/01 12:16:16;;;;;;;0.37;0.30;;;17.40;67.10;;;;;;5002829;28;20046;-78
2023/04/01 12:19:15;;;;;;;0.20;0.10;;;17.40;67.30;;;;;;5004646;28;20371;-78
2023/04/01 12:21:59;;;;;;;0.30;0.15;;;17.40;67.20;;;;;;5002676;28;20041;-78
2023/04/01 12:25:00;;;;;;;0.20;0.15;;;17.40;68.00;;;;;;5002992;28;20110;-78
2023/04/01 12:27:45;;;;;;;0.10;0.10;;;17.40;67.20;;;;;;5005480;28;20067;-78
2023/04/01 12:30:20;;;;;;;0.17;0.10;;;17.40;67.20;;;;;;5005528;28;20503;-78
2023/04/01 12:33:27;;;;;;;0.93;0.20;;;17.40;67.30;;;;;;5007792;28;30497;-78
2023/04/01 12:36:01;;;;;;;0.20;0.20;;;17.40;67.30;;;;;;5003009;28;20050;-78
2023/04/01 12:39:11;;;;;;;0.22;0.20;;;17.40;67.30;;;;;;5003030;28;20076;-78
2023/04/01 12:41:37;;;;;;;0.28;0.20;;;17.40;67.30;;;;;;5011171;28;20045;-78
2023/04/01 12:44:35;;;;;;;0.47;0.40;;;17.40;67.40;;;;;;4994590;28;20048;-78
2023/04/01 12:47:19;;;;;;;0.30;0.20;;;17.40;67.40;;;;;;5007513;28;20040;-78
2023/04/01 12:50:10;;;;;;;0.22;0.20;;;17.40;67.40;;;;;;5005884;28;20049;-78
2023/04/01 12:53:08;;;;;;;0.17;0.10;;;17.40;67.30;;;;;;5011189;28;20562;-78
2023/04/01 12:55:44;;;;;;;0.22;0.20;;;17.40;67.20;;;;;;4993017;28;20049;-78
2023/04/01 12:58:40;;;;;;;0.28;0.20;;;17.40;67.30;;;;;;5008858;28;20394;-78
2023/04/01 13:01:14;;;;;;;0.20;0.20;;;17.40;67.30;;;;;;5009558;28;20053;-78
2023/04/01 13:03:39;;;;;;;;;;;17.40;67.40;;;;;;5009609;28;20058;-78
2023/04/01 13:06:20;;;;;;;0.30;0.20;;;17.40;67.50;;;;;;5009673;28;19989;-78
2023/04/01 13:09:07;;;;;;;0.13;0.13;;;17.40;67.50;;;;;;5009197;28;20052;-78
2023/04/01 13:11:51;;;;;;;0.32;0.30;;;17.40;67.50;;;;;;4977534;28;20104;-78
2023/04/01 13:14:36;;;;;;;0.10;0.10;;;17.40;67.50;;;;;;5013505;28;20049;-78
2023/04/01 13:17:22;;;;;;;0.30;0.10;;;17.40;67.50;;;;;;5013226;28;20048;-77
2023/04/01 13:20:16;;;;;;;0.20;0.15;;;17.40;67.50;;;;;;5012001;28;20050;-78
2023/04/01 13:23:01;;;;;;;0.20;0.20;;;17.40;67.40;;;;;;5025213;28;20042;-78
2023/04/01 13:25:41;;;;;;;0.40;0.30;;;17.40;67.50;;;;;;5011373;28;20033;-78
2023/04/01 13:28:19;;;;;;;0.40;0.20;;;17.40;67.40;;;;;;5008607;28;20043;-78
2023/04/01 13:30:55;;;;;;;0.30;0.20;;;17.40;67.40;;;;;;5011011;28;20069;-78
2023/04/01 13:33:33;;;;;;;0.10;0.03;;;17.40;67.60;;;;;;5011940;28;20053;-78
2023/04/01 13:36:14;;;;;;;0.30;0.10;;;17.40;67.30;;;;;;4993751;28;20026;-78